FIMP/MRU METAR and TAF weather

Enter ICAO airport designator
Station Type Date Time Source
FIMP METAR 2021/04/13 08:00 UTC NOAA

FIMP 130800Z 11007KT 9999 BKN017 SCT250 29/22 Q1017


Station Type Date Time Source
FIMP Decoded METAR 2021/04/13 08:00 UTC NOAA

Plaisance Mauritius , Mauritius (FIMP) 20-26S 057-40E 57M
Apr 13, 2021 - 04:00 AM EDT / 2021.04.13 0800 UTC
Wind: from the ESE (110 degrees) at 8 MPH (7 KT):0
Visibility: greater than 7 mile(s):0
Sky conditions: mostly cloudy
Temperature: 84 F (29 C)
Dew Point: 71 F (22 C)
Relative Humidity: 65%
Pressure (altimeter): 30.03 in. Hg (1017 hPa)
ob: FIMP 130800Z 11007KT 9999 BKN017 SCT250 29/22 Q1017
cycle: 8

Station Type Date Time Source
FIMP TAF 2021/04/13 06:42 UTC NOAA

TAF TAF FIMP 130505Z 1306/1412 09008KT 9999 SCT017 TE

Example: see airport list